Time;durP1;ratioP1;P1;durP2;ratioP2;P2;SDS_P1;SDS_P2;PMS_P1;PMS_P2;Temp;Humidity;BMP_temperature;BMP_pressure;BME280_temperature;BME280_humidity;BME280_pressure;Samples;Min_cycle;Max_cycle;Signal;HPM_P1;HPM_P2
2021/08/26 00:00:10;;;;;;;11.70;6.32;;;15.70;99.90;;;;;;5096502;28;20021;-68
2021/08/26 00:08:04;;;;;;;12.32;6.15;;;15.70;99.90;;;;;;5100228;28;20036;-68
2021/08/26 00:10:30;;;;;;;9.25;5.13;;;15.70;99.90;;;;;;5100253;28;20052;-68
2021/08/26 00:12:56;;;;;;;10.95;5.72;;;15.70;99.90;;;;;;5100463;28;20032;-68
2021/08/26 00:15:22;;;;;;;10.15;5.45;;;15.60;99.90;;;;;;5100393;28;20021;-68
2021/08/26 00:17:48;;;;;;;11.82;5.97;;;15.60;99.90;;;;;;5100485;28;20024;-68
2021/08/26 00:20:14;;;;;;;8.73;5.47;;;15.60;99.90;;;;;;5100270;28;20054;-68
2021/08/26 00:22:40;;;;;;;10.40;4.85;;;15.50;99.90;;;;;;5100059;28;20029;-68
2021/08/26 00:25:07;;;;;;;11.85;6.68;;;15.50;99.90;;;;;;5100101;28;20043;-68
2021/08/26 00:27:34;;;;;;;10.55;5.78;;;15.40;99.90;;;;;;5099979;28;20028;-68
2021/08/26 00:30:00;;;;;;;8.60;5.35;;;15.40;99.90;;;;;;5100120;28;20107;-68
2021/08/26 00:32:25;;;;;;;8.13;5.72;;;15.50;99.90;;;;;;5099883;28;20099;-68
2021/08/26 00:34:51;;;;;;;11.52;5.82;;;15.40;99.90;;;;;;5099863;28;20055;-68
2021/08/26 00:37:17;;;;;;;9.95;6.53;;;15.30;99.90;;;;;;5099823;28;20035;-68
2021/08/26 00:39:43;;;;;;;14.57;6.30;;;15.30;99.90;;;;;;5099864;28;20020;-68
2021/08/26 00:42:09;;;;;;;8.60;5.35;;;15.30;99.90;;;;;;5099728;28;20070;-68
2021/08/26 00:44:37;;;;;;;11.77;7.15;;;15.30;99.90;;;;;;5099976;28;20476;-68
2021/08/26 00:47:03;;;;;;;10.05;5.40;;;15.20;99.90;;;;;;5099636;28;20039;-68
2021/08/26 00:49:30;;;;;;;9.40;5.63;;;15.30;99.90;;;;;;5099770;28;20025;-68
2021/08/26 00:51:57;;;;;;;13.82;6.35;;;15.20;99.90;;;;;;5098180;28;20076;-68
2021/08/26 00:54:23;;;;;;;11.43;6.38;;;15.20;99.90;;;;;;5099514;28;20020;-68
2021/08/26 00:56:49;;;;;;;12.85;6.68;;;15.20;99.90;;;;;;5099410;28;20496;-68
2021/08/26 00:59:15;;;;;;;10.82;6.32;;;15.20;99.90;;;;;;5099525;28;20016;-68
2021/08/26 01:02:09;;;;;;;10.13;5.78;;;15.20;99.90;;;;;;5099260;28;20055;-68
2021/08/26 01:04:42;;;;;;;13.80;6.35;;;15.20;99.90;;;;;;5099549;28;20043;-68
2021/08/26 01:07:26;;;;;;;13.38;6.88;;;15.20;99.90;;;;;;5099026;28;20016;-68
2021/08/26 01:10:01;;;;;;;11.55;5.90;;;15.20;99.90;;;;;;5099180;28;20537;-68
2021/08/26 01:12:29;;;;;;;10.98;6.88;;;15.10;99.90;;;;;;5099415;28;20020;-68
2021/08/26 01:14:56;;;;;;;9.45;6.80;;;15.10;99.90;;;;;;5098974;28;20023;-68
2021/08/26 01:17:26;;;;;;;13.45;6.55;;;15.10;99.90;;;;;;5099061;28;20384;-68
2021/08/26 01:19:54;;;;;;;14.38;6.60;;;15.00;99.90;;;;;;5099026;28;20012;-68
2021/08/26 01:22:21;;;;;;;14.90;6.35;;;15.20;99.90;;;;;;5098949;28;20020;-68
2021/08/26 01:24:56;;;;;;;10.85;6.72;;;15.10;99.90;;;;;;5098820;28;20480;-68
2021/08/26 01:27:28;;;;;;;14.95;6.57;;;15.10;99.90;;;;;;5086494;28;20025;-68
2021/08/26 01:29:56;;;;;;;12.02;6.35;;;15.00;99.90;;;;;;5085283;28;20076;-68
2021/08/26 01:32:23;;;;;;;12.85;6.32;;;15.00;99.90;;;;;;5098772;28;20024;-68
2021/08/26 01:34:51;;;;;;;12.95;7.10;;;15.00;99.90;;;;;;5098813;28;20016;-68
2021/08/26 01:37:19;;;;;;;9.25;5.55;;;13.70;99.90;;;;;;5098598;28;20046;-68
2021/08/26 01:39:46;;;;;;;10.18;6.60;;;14.90;99.90;;;;;;5098571;28;20020;-68
2021/08/26 01:42:13;;;;;;;9.57;6.18;;;15.00;99.90;;;;;;5098645;28;20070;-68
2021/08/26 01:44:39;;;;;;;11.13;6.85;;;14.80;99.90;;;;;;5098690;28;20013;-68
2021/08/26 01:47:11;;;;;;;12.05;6.82;;;14.70;99.90;;;;;;5098405;28;20028;-68
2021/08/26 01:49:37;;;;;;;13.27;7.72;;;14.70;99.90;;;;;;5098526;28;20016;-68
2021/08/26 01:52:03;;;;;;;17.33;7.35;;;14.70;99.90;;;;;;5098223;28;20147;-68
2021/08/26 01:54:29;;;;;;;10.75;6.18;;;14.70;99.90;;;;;;5098349;28;20012;-68
2021/08/26 01:56:55;;;;;;;13.57;7.43;;;14.70;99.90;;;;;;5098200;28;20055;-68
2021/08/26 01:59:22;;;;;;;10.55;7.03;;;14.60;99.90;;;;;;5098362;28;20016;-68
2021/08/26 02:01:47;;;;;;;11.85;7.70;;;14.60;99.90;;;;;;5098364;28;20048;-68
2021/08/26 02:04:13;;;;;;;11.57;7.28;;;14.60;99.90;;;;;;5098330;28;20495;-68
2021/08/26 02:06:39;;;;;;;12.07;6.93;;;14.70;99.90;;;;;;5096537;28;20091;-68
2021/08/26 02:09:05;;;;;;;8.70;6.15;;;14.60;99.90;;;;;;5097989;28;20400;-69
2021/08/26 02:11:31;;;;;;;12.98;7.57;;;14.60;99.90;;;;;;5097975;28;20028;-68
2021/08/26 02:13:57;;;;;;;12.50;6.47;;;14.60;99.90;;;;;;5098156;28;20557;-68
2021/08/26 02:16:22;;;;;;;11.48;7.35;;;14.60;99.90;;;;;;5097816;28;20028;-68
2021/08/26 02:18:48;;;;;;;9.45;6.30;;;14.50;99.90;;;;;;5098263;28;20012;-68
2021/08/26 02:21:14;;;;;;;12.20;7.25;;;14.50;99.90;;;;;;5097532;28;20475;-68
2021/08/26 02:23:40;;;;;;;16.67;7.15;;;14.50;99.90;;;;;;5097893;28;20026;-68
2021/08/26 02:26:06;;;;;;;12.50;7.68;;;14.40;99.90;;;;;;5096306;28;20460;-68
2021/08/26 02:28:32;;;;;;;15.35;8.05;;;14.30;99.90;;;;;;5097223;28;20399;-68
2021/08/26 02:30:58;;;;;;;13.23;8.35;;;14.30;99.90;;;;;;5097674;28;20024;-68
2021/08/26 02:33:24;;;;;;;16.33;7.82;;;14.30;99.90;;;;;;5097450;28;20027;-68
2021/08/26 02:35:49;;;;;;;11.63;8.02;;;14.30;99.90;;;;;;5097810;28;20039;-68
2021/08/26 02:38:15;;;;;;;12.93;7.95;;;14.20;99.90;;;;;;5097456;28;20020;-68
2021/08/26 02:40:41;;;;;;;18.45;7.75;;;14.20;99.90;;;;;;5097564;28;20028;-68
2021/08/26 02:43:07;;;;;;;14.93;7.53;;;14.30;99.90;;;;;;5097418;28;20019;-68
2021/08/26 02:45:33;;;;;;;16.52;7.10;;;14.30;99.90;;;;;;5097378;28;20150;-68
2021/08/26 02:47:59;;;;;;;15.68;7.95;;;14.30;99.90;;;;;;5097472;28;20384;-69
2021/08/26 02:50:25;;;;;;;12.85;8.18;;;14.20;99.90;;;;;;5097176;28;20433;-68
2021/08/26 02:52:50;;;;;;;12.80;8.00;;;14.20;99.90;;;;;;5097183;28;20136;-68
2021/08/26 02:55:16;;;;;;;10.32;7.25;;;14.10;99.90;;;;;;5097289;28;20032;-68
2021/08/26 02:57:42;;;;;;;15.57;9.40;;;14.10;99.90;;;;;;5097060;28;20040;-68
2021/08/26 03:00:09;;;;;;;14.07;7.75;;;14.10;99.90;;;;;;5097188;28;20031;-68
2021/08/26 03:02:35;;;;;;;13.82;9.00;;;14.10;99.90;;;;;;5097169;28;20384;-69
2021/08/26 03:05:00;;;;;;;12.98;7.30;;;14.00;99.90;;;;;;5097202;28;20020;-68
2021/08/26 03:07:26;;;;;;;10.98;6.90;;;13.90;99.90;;;;;;5096985;28;20430;-68
2021/08/26 03:09:52;;;;;;;12.45;7.00;;;13.90;99.90;;;;;;5096983;28;20028;-68
2021/08/26 03:12:18;;;;;;;17.02;8.80;;;14.00;99.90;;;;;;5097240;28;20021;-68
2021/08/26 03:14:44;;;;;;;15.32;8.32;;;13.90;99.90;;;;;;5096888;28;20024;-68
2021/08/26 03:17:09;;;;;;;18.85;9.70;;;13.80;99.90;;;;;;5097098;28;20095;-68
2021/08/26 03:19:35;;;;;;;19.77;8.57;;;13.70;99.90;;;;;;5096994;28;20034;-69
2021/08/26 03:22:01;;;;;;;15.13;9.00;;;13.80;99.90;;;;;;5095248;28;20027;-68
2021/08/26 03:24:27;;;;;;;14.40;8.65;;;13.70;99.90;;;;;;5096640;28;20030;-69
2021/08/26 03:26:53;;;;;;;12.13;8.52;;;13.70;99.90;;;;;;5097014;28;20020;-69
2021/08/26 03:29:18;;;;;;;15.10;9.73;;;13.60;99.90;;;;;;5096949;28;20030;-69
2021/08/26 03:31:44;;;;;;;15.98;9.60;;;13.80;99.90;;;;;;5096605;28;20020;-69
2021/08/26 03:34:10;;;;;;;16.98;10.35;;;13.70;99.90;;;;;;5096706;28;20105;-68
2021/08/26 03:36:36;;;;;;;15.82;9.65;;;13.90;99.90;;;;;;5096602;28;20020;-69
2021/08/26 03:39:02;;;;;;;12.85;9.88;;;13.60;99.90;;;;;;5096882;28;20028;-68
2021/08/26 03:41:28;;;;;;;12.60;7.80;;;13.60;99.90;;;;;;5101093;28;20016;-69
2021/08/26 03:43:54;;;;;;;16.08;8.98;;;13.60;99.90;;;;;;5100831;28;20027;-69
2021/08/26 03:46:20;;;;;;;14.45;10.02;;;13.60;99.90;;;;;;5101100;28;20022;-69
2021/08/26 03:48:46;;;;;;;14.95;9.10;;;12.20;99.90;;;;;;5100934;28;20036;-69
2021/08/26 03:51:11;;;;;;;18.67;9.82;;;13.50;99.90;;;;;;5100578;28;20024;-69
2021/08/26 03:53:37;;;;;;;17.90;9.00;;;13.50;99.90;;;;;;5100889;28;20028;-69
2021/08/26 03:56:05;;;;;;;13.25;8.90;;;13.70;99.90;;;;;;5100526;28;20052;-68
2021/08/26 03:58:33;;;;;;;15.55;9.00;;;13.70;99.90;;;;;;5100549;28;20020;-69
2021/08/26 04:01:02;;;;;;;15.82;10.20;;;13.50;99.90;;;;;;5099278;28;20105;-69
2021/08/26 04:03:28;;;;;;;15.65;10.50;;;13.60;99.90;;;;;;5100266;28;20016;-69
2021/08/26 04:05:53;;;;;;;15.55;10.65;;;13.50;99.90;;;;;;5100514;28;20026;-69
2021/08/26 04:08:19;;;;;;;15.52;10.57;;;13.60;99.90;;;;;;5100333;28;20032;-69
2021/08/26 04:10:45;;;;;;;20.17;10.48;;;13.60;99.90;;;;;;5100420;28;20547;-68
2021/08/26 04:13:12;;;;;;;14.75;9.27;;;13.60;99.90;;;;;;5100325;28;20024;-68
2021/08/26 04:15:37;;;;;;;17.38;10.40;;;13.50;99.90;;;;;;5100410;28;20361;-68
2021/08/26 04:18:03;;;;;;;16.27;10.23;;;13.40;99.90;;;;;;5100187;28;20020;-68
2021/08/26 04:20:29;;;;;;;21.20;10.85;;;13.50;99.90;;;;;;5100462;28;20481;-68
2021/08/26 04:22:55;;;;;;;14.95;10.45;;;13.50;99.90;;;;;;5099717;28;20027;-68
2021/08/26 04:25:21;;;;;;;13.02;9.80;;;13.60;99.90;;;;;;5100076;28;20031;-68
2021/08/26 04:27:47;;;;;;;22.25;10.63;;;13.40;99.90;;;;;;5100158;28;20031;-69
2021/08/26 04:30:13;;;;;;;13.13;9.13;;;13.50;99.90;;;;;;5100201;28;20032;-69
2021/08/26 04:32:39;;;;;;;16.60;10.68;;;13.60;99.90;;;;;;5099819;28;20473;-69
2021/08/26 04:35:06;;;;;;;15.00;10.40;;;13.50;99.90;;;;;;5099839;28;20081;-69
2021/08/26 04:37:31;;;;;;;17.98;10.32;;;13.40;99.90;;;;;;5099605;28;20031;-68
2021/08/26 04:39:57;;;;;;;14.55;10.90;;;13.50;99.90;;;;;;5099713;28;20016;-68
2021/08/26 04:42:23;;;;;;;13.10;10.35;;;13.50;99.90;;;;;;5099907;28;20024;-68
2021/08/26 04:44:49;;;;;;;17.05;10.77;;;13.40;99.90;;;;;;5099949;28;20066;-68
2021/08/26 04:47:15;;;;;;;15.05;10.50;;;13.70;99.90;;;;;;5099564;28;20116;-68
2021/08/26 04:49:40;;;;;;;16.58;10.43;;;13.40;99.90;;;;;;5099768;28;20024;-68
2021/08/26 04:52:06;;;;;;;12.88;10.48;;;13.40;99.90;;;;;;5098614;28;20020;-68
2021/08/26 04:54:32;;;;;;;13.95;11.70;;;13.70;99.90;;;;;;5098226;28;20027;-69
2021/08/26 04:56:58;;;;;;;13.98;11.15;;;13.60;99.90;;;;;;5099402;28;20055;-68
2021/08/26 04:59:24;;;;;;;16.67;11.82;;;13.60;99.90;;;;;;5099524;28;20043;-69
2021/08/26 05:01:50;;;;;;;13.05;10.93;;;13.50;99.90;;;;;;5099420;28;20016;-68
2021/08/26 05:04:22;;;;;;;16.10;11.48;;;13.40;99.90;;;;;;5099680;28;20016;-68
2021/08/26 05:06:49;;;;;;;14.55;11.75;;;13.50;99.90;;;;;;5097833;28;20111;-68
2021/08/26 05:09:14;;;;;;;12.57;10.90;;;13.40;99.90;;;;;;5099314;28;20052;-68
2021/08/26 05:11:40;;;;;;;14.35;12.55;;;13.40;99.90;;;;;;5099170;28;20035;-70
2021/08/26 05:14:06;;;;;;;14.85;12.15;;;13.80;99.90;;;;;;5099323;28;20066;-70
2021/08/26 05:16:32;;;;;;;15.98;11.70;;;13.40;99.90;;;;;;5094882;28;20112;-69
2021/08/26 05:18:58;;;;;;;17.65;12.07;;;13.50;99.90;;;;;;5098250;28;20095;-69
2021/08/26 05:21:24;;;;;;;20.88;12.60;;;13.30;99.90;;;;;;5098136;28;20021;-69
2021/08/26 05:23:49;;;;;;;17.90;11.77;;;13.50;99.90;;;;;;5100470;28;20028;-69
2021/08/26 05:26:15;;;;;;;17.58;12.43;;;13.50;99.90;;;;;;5098808;28;20936;-69
2021/08/26 05:28:42;;;;;;;13.57;12.00;;;13.60;99.90;;;;;;5099082;28;20074;-69
2021/08/26 05:31:09;;;;;;;15.38;12.07;;;13.50;99.90;;;;;;5098485;28;20024;-69
2021/08/26 05:33:35;;;;;;;21.65;13.70;;;13.60;99.90;;;;;;5098578;28;20426;-69
2021/08/26 05:36:01;;;;;;;17.35;12.45;;;13.50;99.90;;;;;;5097949;28;20094;-69
2021/08/26 05:38:27;;;;;;;18.88;12.70;;;13.50;99.90;;;;;;5098115;28;20053;-69
2021/08/26 05:40:53;;;;;;;17.40;12.65;;;13.70;99.90;;;;;;5098492;28;20027;-69
2021/08/26 05:43:18;;;;;;;14.55;12.38;;;13.70;99.90;;;;;;5098882;28;20495;-69
2021/08/26 05:45:44;;;;;;;15.40;12.75;;;13.60;99.90;;;;;;5098459;28;20026;-70
2021/08/26 05:48:10;;;;;;;18.20;13.07;;;13.60;99.90;;;;;;5098631;28;20036;-69
2021/08/26 05:50:36;;;;;;;17.80;12.77;;;13.40;99.90;;;;;;5098370;28;20027;-70
2021/08/26 05:53:02;;;;;;;15.93;11.02;;;13.70;99.90;;;;;;5098214;28;20460;-70
2021/08/26 05:55:28;;;;;;;18.48;12.18;;;13.70;99.90;;;;;;5098105;28;20024;-70
2021/08/26 05:57:53;;;;;;;17.63;13.27;;;13.60;99.90;;;;;;5098106;28;20048;-70
2021/08/26 06:00:19;;;;;;;21.08;13.68;;;13.90;99.90;;;;;;5098393;28;20020;-69
2021/08/26 06:02:45;;;;;;;15.77;11.48;;;13.80;99.90;;;;;;5097328;28;20024;-70
2021/08/26 06:05:11;;;;;;;21.65;13.63;;;14.00;99.90;;;;;;5098137;28;20504;-70
2021/08/26 06:07:40;;;;;;;16.02;12.63;;;14.00;99.90;;;;;;5097811;28;20162;-70
2021/08/26 06:10:10;;;;;;;17.20;12.25;;;14.10;99.90;;;;;;5097854;28;20028;-70
2021/08/26 06:12:43;;;;;;;21.13;12.52;;;14.30;99.90;;;;;;5096666;28;20064;-69
2021/08/26 06:15:10;;;;;;;15.95;11.50;;;14.40;99.90;;;;;;5097802;28;20028;-69
2021/08/26 06:17:36;;;;;;;17.10;11.48;;;14.60;99.90;;;;;;5097929;28;20027;-69
2021/08/26 06:20:05;;;;;;;16.05;11.73;;;14.70;99.90;;;;;;5097793;28;20027;-70
2021/08/26 06:22:31;;;;;;;15.48;11.20;;;14.80;99.90;;;;;;5097640;28;20020;-70
2021/08/26 06:24:57;;;;;;;11.98;10.35;;;14.80;99.90;;;;;;5097873;28;20048;-70
2021/08/26 06:27:23;;;;;;;12.63;11.15;;;15.10;99.90;;;;;;5096363;28;20053;-69
2021/08/26 06:29:49;;;;;;;12.15;9.05;;;15.10;99.90;;;;;;5097685;28;20048;-69
2021/08/26 06:32:15;;;;;;;12.88;9.55;;;15.40;99.90;;;;;;5097905;28;20028;-70
2021/08/26 06:34:40;;;;;;;13.57;9.52;;;15.30;99.90;;;;;;5097531;28;20519;-70
2021/08/26 06:37:06;;;;;;;11.38;10.15;;;15.50;99.90;;;;;;5097235;28;20038;-70
2021/08/26 06:39:32;;;;;;;15.98;9.85;;;15.70;99.90;;;;;;5097357;28;20024;-70
2021/08/26 06:41:58;;;;;;;15.85;10.23;;;15.80;99.90;;;;;;5097462;28;20077;-71
2021/08/26 06:44:24;;;;;;;16.38;9.20;;;16.00;99.90;;;;;;5097339;28;20027;-71
2021/08/26 06:46:49;;;;;;;14.30;10.50;;;16.10;99.90;;;;;;5097503;28;20024;-71
2021/08/26 06:49:15;;;;;;;14.63;9.52;;;16.40;99.90;;;;;;5097413;28;20028;-70
2021/08/26 06:51:41;;;;;;;12.43;9.45;;;16.40;99.90;;;;;;5097103;28;20028;-70
2021/08/26 06:54:07;;;;;;;14.35;8.45;;;16.60;99.90;;;;;;5097018;28;20504;-70
2021/08/26 06:56:33;;;;;;;11.55;7.85;;;16.60;99.90;;;;;;5096851;28;20048;-70
2021/08/26 06:58:59;;;;;;;11.05;8.40;;;16.90;99.90;;;;;;5097086;28;20028;-70
2021/08/26 07:01:24;;;;;;;13.75;8.43;;;16.90;99.90;;;;;;5097265;28;20020;-70
2021/08/26 07:03:53;;;;;;;8.43;6.95;;;17.00;99.90;;;;;;5097075;28;20024;-71
2021/08/26 07:06:19;;;;;;;14.40;8.82;;;17.20;99.90;;;;;;5096974;28;20022;-70
2021/08/26 07:08:45;;;;;;;10.93;7.47;;;17.40;99.90;;;;;;5097192;28;20653;-70
2021/08/26 07:11:11;;;;;;;11.77;7.60;;;17.50;99.90;;;;;;5096991;28;20024;-70
2021/08/26 07:13:37;;;;;;;10.57;7.47;;;17.50;99.90;;;;;;5096704;28;20058;-70
2021/08/26 07:16:03;;;;;;;11.52;7.95;;;17.70;99.90;;;;;;5096810;28;20028;-70
2021/08/26 07:18:29;;;;;;;10.90;7.93;;;17.80;99.90;;;;;;5096666;28;20024;-70
2021/08/26 07:20:55;;;;;;;12.13;8.23;;;18.00;99.90;;;;;;5096674;28;20024;-70
2021/08/26 07:23:21;;;;;;;12.00;7.88;;;17.90;99.90;;;;;;5096554;28;20483;-70
2021/08/26 07:25:48;;;;;;;9.32;7.10;;;18.00;99.90;;;;;;5097023;28;20449;-70
2021/08/26 07:28:13;;;;;;;8.57;6.43;;;18.10;99.90;;;;;;5096751;28;20028;-70
2021/08/26 07:30:39;;;;;;;10.07;7.18;;;18.30;99.90;;;;;;5096834;28;20138;-70
2021/08/26 07:33:06;;;;;;;9.98;7.47;;;18.30;99.90;;;;;;5095117;28;20073;-70
2021/08/26 07:35:32;;;;;;;9.25;7.00;;;18.30;99.90;;;;;;5096751;28;20078;-70
2021/08/26 07:37:58;;;;;;;11.15;7.55;;;18.20;99.90;;;;;;5096310;28;20032;-70
2021/08/26 07:40:24;;;;;;;12.15;7.40;;;18.30;99.90;;;;;;5096596;28;20024;-70
2021/08/26 07:42:50;;;;;;;14.05;7.20;;;18.40;99.90;;;;;;5096436;28;20388;-70
2021/08/26 07:45:16;;;;;;;8.05;5.93;;;18.50;99.90;;;;;;5096848;28;20032;-70
2021/08/26 07:47:42;;;;;;;10.98;6.60;;;18.70;99.90;;;;;;5096664;28;20096;-70
2021/08/26 07:50:09;;;;;;;7.05;5.40;;;18.70;99.90;;;;;;5096557;28;20025;-70
2021/08/26 07:52:35;;;;;;;12.32;6.43;;;19.00;99.90;;;;;;5096340;28;20016;-70
2021/08/26 07:55:02;;;;;;;9.30;5.75;;;19.00;99.90;;;;;;5096406;28;20468;-70
2021/08/26 07:57:29;;;;;;;12.88;7.13;;;19.00;99.90;;;;;;5096383;28;20037;-70
2021/08/26 07:59:56;;;;;;;12.40;6.05;;;19.20;99.90;;;;;;5096314;28;20040;-70
2021/08/26 08:02:22;;;;;;;9.07;5.85;;;19.20;99.90;;;;;;5096560;28;20065;-70
2021/08/26 08:04:48;;;;;;;11.43;6.25;;;19.30;99.90;;;;;;5096609;28;20106;-70
2021/08/26 08:07:15;;;;;;;10.00;6.22;;;19.50;99.90;;;;;;5096412;28;20430;-70
2021/08/26 08:09:41;;;;;;;7.07;5.05;;;19.60;99.90;;;;;;5096214;28;20035;-70
2021/08/26 08:12:07;;;;;;;11.02;6.25;;;19.70;99.90;;;;;;5096469;28;20059;-70
2021/08/26 08:14:34;;;;;;;9.73;6.07;;;20.00;99.90;;;;;;5096304;28;20024;-70
2021/08/26 08:17:00;;;;;;;10.15;6.10;;;20.40;99.90;;;;;;5096379;28;20158;-70
2021/08/26 08:19:27;;;;;;;9.02;6.18;;;20.50;99.90;;;;;;5096221;28;20032;-70
2021/08/26 08:21:53;;;;;;;9.98;5.85;;;20.70;99.90;;;;;;5096139;28;20051;-70
2021/08/26 08:24:21;;;;;;;7.25;4.47;;;21.30;99.90;;;;;;5096277;28;20062;-70
2021/08/26 08:26:47;;;;;;;7.32;5.15;;;;;;;;;;5096594;28;20016;-70
2021/08/26 08:29:13;;;;;;;7.82;5.50;;;21.80;99.90;;;;;;5099912;28;20039;-70
2021/08/26 08:31:38;;;;;;;16.80;5.28;;;22.00;99.90;;;;;;5098469;28;20020;-70
2021/08/26 08:34:04;;;;;;;7.70;4.70;;;22.60;99.90;;;;;;5098555;28;20050;-70
2021/08/26 08:39:52;;;;;;;6.68;4.28;;;23.40;99.90;;;;;;5099958;28;20503;-70
2021/08/26 08:42:22;;;;;;;8.85;4.72;;;24.20;99.90;;;;;;5099846;28;20013;-70
2021/08/26 08:44:49;;;;;;;6.85;4.57;;;24.50;99.90;;;;;;5100112;28;20052;-69
2021/08/26 08:47:15;;;;;;;7.68;5.30;;;24.50;99.90;;;;;;5099726;28;20027;-70
2021/08/26 08:49:43;;;;;;;8.32;4.53;;;24.40;99.90;;;;;;5099799;28;20031;-70
2021/08/26 08:52:10;;;;;;;6.43;4.00;;;24.30;99.90;;;;;;5099205;28;20331;-70
2021/08/26 08:54:36;;;;;;;7.05;4.63;;;24.10;99.90;;;;;;5099590;28;20027;-70
2021/08/26 08:57:03;;;;;;;5.75;4.13;;;24.60;99.90;;;;;;5099231;28;20040;-70
2021/08/26 08:59:30;;;;;;;9.15;5.05;;;24.90;99.90;;;;;;5099532;28;20586;-70
2021/08/26 09:01:56;;;;;;;8.35;5.45;;;24.80;99.90;;;;;;5099248;28;20098;-70
2021/08/26 09:04:23;;;;;;;7.80;4.88;;;24.60;99.90;;;;;;5099447;28;20054;-70
2021/08/26 09:06:50;;;;;;;7.43;4.95;;;24.60;99.90;;;;;;5098915;28;20024;-70
2021/08/26 09:09:17;;;;;;;8.95;5.13;;;25.20;99.90;;;;;;5099408;28;20032;-70
2021/08/26 09:11:51;;;;;;;13.13;5.10;;;25.40;99.90;;;;;;5099110;28;20039;-70
2021/08/26 09:14:17;;;;;;;7.13;4.80;;;25.30;99.90;;;;;;5099438;28;20035;-69
2021/08/26 09:16:47;;;;;;;5.20;3.42;;;25.40;99.90;;;;;;5098867;28;20396;-69
2021/08/26 09:19:24;;;;;;;7.10;4.78;;;25.70;99.90;;;;;;5099092;28;20024;-70
2021/08/26 09:21:51;;;;;;;7.72;4.60;;;26.40;99.90;;;;;;5098522;28;20017;-70
2021/08/26 09:24:18;;;;;;;6.38;4.40;;;26.70;99.90;;;;;;5099103;28;20380;-70
2021/08/26 09:26:48;;;;;;;6.57;3.88;;;27.10;99.90;;;;;;5098819;28;20020;-69
2021/08/26 09:29:14;;;;;;;7.05;3.47;;;27.20;99.90;;;;;;5099045;28;20066;-69
2021/08/26 09:31:43;;;;;;;10.20;5.35;;;27.30;99.90;;;;;;5097433;28;20111;-69
2021/08/26 09:34:19;;;;;;;4.97;4.05;;;27.30;99.90;;;;;;5098828;28;20301;-69
2021/08/26 09:36:55;;;;;;;8.75;4.88;;;27.20;99.90;;;;;;5098423;28;20472;-69
2021/08/26 09:39:24;;;;;;;6.90;4.82;;;27.40;98.90;;;;;;5098527;28;20039;-70
2021/08/26 09:41:51;;;;;;;7.78;5.28;;;;;;;;;;5098678;28;20020;-69
2021/08/26 09:44:19;;;;;;;7.05;4.57;;;27.70;99.90;;;;;;5098649;28;20020;-70
2021/08/26 09:46:48;;;;;;;6.13;4.03;;;28.00;96.50;;;;;;5098815;28;20093;-70
2021/08/26 09:49:16;;;;;;;7.30;4.80;;;28.40;96.40;;;;;;5098588;28;20028;-70
2021/08/26 09:51:44;;;;;;;6.38;4.45;;;28.80;99.90;;;;;;5098127;28;20024;-70
2021/08/26 09:54:30;;;;;;;7.78;4.70;;;29.00;99.90;;;;;;5098144;28;20032;-70
2021/08/26 09:56:56;;;;;;;5.80;3.65;;;29.10;99.90;;;;;;5098090;28;20040;-70
2021/08/26 09:59:48;;;;;;;5.38;3.70;;;29.50;94.70;;;;;;5098399;28;20069;-69
2021/08/26 10:02:15;;;;;;;5.60;4.35;;;29.90;93.40;;;;;;5098304;28;20020;-70
2021/08/26 10:04:42;;;;;;;9.70;4.57;;;29.70;91.80;;;;;;5098244;28;20035;-69
2021/08/26 10:07:08;;;;;;;6.50;5.18;;;29.00;92.00;;;;;;5097708;28;20035;-69
2021/08/26 10:09:36;;;;;;;9.15;5.10;;;28.60;92.40;;;;;;5098037;28;20032;-70
2021/08/26 10:12:03;;;;;;;8.13;4.82;;;28.70;94.10;;;;;;5097897;28;20023;-69
2021/08/26 10:14:29;;;;;;;6.65;3.78;;;28.40;92.90;;;;;;5098099;28;20503;-70
2021/08/26 10:16:55;;;;;;;7.85;4.88;;;28.70;93.10;;;;;;5097776;28;20025;-69
2021/08/26 10:19:22;;;;;;;4.80;3.35;;;28.80;92.50;;;;;;5097887;28;20022;-70
2021/08/26 10:21:48;;;;;;;7.75;4.13;;;29.00;92.40;;;;;;5097512;28;20483;-69
2021/08/26 10:24:14;;;;;;;5.80;3.88;;;29.00;91.70;;;;;;5097795;28;20050;-69
2021/08/26 10:26:50;;;;;;;4.10;3.22;;;29.40;92.30;;;;;;5097703;28;20016;-69
2021/08/26 10:29:20;;;;;;;6.85;5.13;;;30.20;93.30;;;;;;5097932;28;20024;-70
2021/08/26 10:31:58;;;;;;;5.95;4.03;;;30.40;92.40;;;;;;5097751;28;20037;-69
2021/08/26 10:34:29;;;;;;;3.13;1.85;;;30.00;90.60;;;;;;5097574;28;20028;-69
2021/08/26 10:36:57;;;;;;;5.70;2.42;;;31.10;91.00;;;;;;5097478;28;20162;-69
2021/08/26 10:39:35;;;;;;;2.75;2.25;;;31.00;91.10;;;;;;5097340;28;20020;-70
2021/08/26 10:42:19;;;;;;;5.75;3.67;;;31.70;90.10;;;;;;5097427;28;20020;-69
2021/08/26 10:45:10;;;;;;;3.00;2.30;;;31.60;88.20;;;;;;5097769;28;20056;-70
2021/08/26 10:47:48;;;;;;;6.93;3.72;;;31.80;88.00;;;;;;5097338;28;20103;-69
2021/08/26 10:50:22;;;;;;;8.35;3.90;;;;;;;;;;5097071;28;20024;-70
2021/08/26 10:53:03;;;;;;;4.57;3.70;;;;;;;;;;5097164;28;20045;-69
2021/08/26 10:55:44;;;;;;;3.38;2.33;;;32.50;88.70;;;;;;5096961;28;20024;-70
2021/08/26 10:58:23;;;;;;;4.75;2.75;;;;;;;;;;5097095;28;20859;-70
2021/08/26 11:01:00;;;;;;;4.07;3.58;;;32.90;90.50;;;;;;5097201;28;20510;-70
2021/08/26 11:03:35;;;;;;;5.85;3.97;;;32.90;83.70;;;;;;5097160;28;20024;-70
2021/08/26 11:06:19;;;;;;;4.63;3.10;;;32.70;81.70;;;;;;5096707;28;20080;-69
2021/08/26 11:08:47;;;;;;;5.88;3.40;;;32.10;81.20;;;;;;5097157;28;20027;-70
2021/08/26 11:11:27;;;;;;;4.20;3.45;;;31.60;80.80;;;;;;5096990;28;20032;-69
2021/08/26 11:14:02;;;;;;;5.75;3.65;;;31.80;82.20;;;;;;5097133;28;20028;-69
2021/08/26 11:16:28;;;;;;;5.43;2.38;;;31.60;80.30;;;;;;5096884;28;20035;-69
2021/08/26 11:19:18;;;;;;;3.08;2.75;;;31.40;80.30;;;;;;5096970;28;20020;-69
2021/08/26 11:21:45;;;;;;;3.30;2.90;;;31.20;89.60;;;;;;5089349;28;20028;-69
2021/08/26 11:24:52;;;;;;;3.78;2.72;;;31.70;90.50;;;;;;5096802;28;20016;-69
2021/08/26 11:27:18;;;;;;;4.80;2.60;;;31.90;93.60;;;;;;5096721;28;20081;-69
2021/08/26 11:29:45;;;;;;;4.43;1.70;;;32.10;87.70;;;;;;5096867;28;20055;-69
2021/08/26 11:32:14;;;;;;;6.05;2.67;;;32.40;90.40;;;;;;5096679;28;20024;-69
2021/08/26 11:34:42;;;;;;;3.25;1.65;;;32.60;77.30;;;;;;5096794;28;20475;-69
2021/08/26 11:37:16;;;;;;;3.58;2.88;;;33.00;77.90;;;;;;5096385;28;20059;-69
2021/08/26 11:40:09;;;;;;;3.10;2.30;;;32.70;76.60;;;;;;5096713;28;20630;-69
2021/08/26 11:42:37;;;;;;;5.22;2.10;;;32.50;74.80;;;;;;5096157;28;20032;-69
2021/08/26 11:45:16;;;;;;;2.95;1.52;;;32.10;83.30;;;;;;5096693;28;20066;-69
2021/08/26 11:47:49;;;;;;;2.42;1.73;;;32.20;75.40;;;;;;5096655;28;20012;-69
2021/08/26 11:50:24;;;;;;;2.47;1.60;;;32.40;75.50;;;;;;5096848;28;20024;-69
2021/08/26 11:52:55;;;;;;;2.75;1.38;;;32.30;74.90;;;;;;5096642;28;20020;-69
2021/08/26 11:55:25;;;;;;;1.60;1.05;;;32.50;74.40;;;;;;5096311;28;20041;-69
2021/08/26 11:58:00;;;;;;;2.28;1.25;;;33.40;72.70;;;;;;5096412;28;20512;-69
2021/08/26 12:00:27;;;;;;;3.17;1.40;;;33.70;73.10;;;;;;5096638;28;20103;-69
2021/08/26 12:02:55;;;;;;;3.35;1.58;;;33.90;72.80;;;;;;5100035;28;20016;-69
2021/08/26 12:05:21;;;;;;;3.55;1.42;;;33.80;71.50;;;;;;5100302;28;20564;-69
2021/08/26 12:07:50;;;;;;;2.15;1.27;;;33.30;70.40;;;;;;5100587;28;20050;-69
2021/08/26 12:10:33;;;;;;;2.42;1.10;;;32.80;71.80;;;;;;5100384;28;20020;-70
2021/08/26 12:13:04;;;;;;;2.58;1.55;;;32.00;73.30;;;;;;5100283;28;20016;-69
2021/08/26 12:15:45;;;;;;;3.92;0.93;;;32.00;74.00;;;;;;5100115;28;20062;-69
2021/08/26 12:18:22;;;;;;;2.28;1.50;;;32.40;74.20;;;;;;5100055;28;20052;-69
2021/08/26 12:20:51;;;;;;;1.70;0.98;;;32.20;71.70;;;;;;5100245;28;20472;-69
2021/08/26 12:23:21;;;;;;;2.67;1.23;;;32.40;74.20;;;;;;5100220;28;20055;-69
2021/08/26 12:26:10;;;;;;;1.35;1.10;;;33.00;73.40;;;;;;5100394;28;20032;-69
2021/08/26 12:28:42;;;;;;;2.33;1.50;;;33.20;71.50;;;;;;5086051;28;20039;-69
2021/08/26 12:31:13;;;;;;;1.85;1.30;;;33.20;71.70;;;;;;5099864;28;20395;-69
2021/08/26 12:33:55;;;;;;;1.48;0.98;;;33.00;71.70;;;;;;5099685;28;20035;-69
2021/08/26 12:36:21;;;;;;;1.27;0.70;;;32.80;70.90;;;;;;5099632;28;20032;-69
2021/08/26 12:38:47;;;;;;;3.47;0.95;;;32.80;71.10;;;;;;5099970;28;20020;-69
2021/08/26 12:41:17;;;;;;;3.58;1.02;;;33.10;70.50;;;;;;5098481;28;20021;-69
2021/08/26 12:43:46;;;;;;;1.35;1.13;;;33.10;71.20;;;;;;5099894;28;20028;-69
2021/08/26 12:46:19;;;;;;;2.58;1.15;;;33.00;71.70;;;;;;5098581;28;20060;-70
2021/08/26 12:48:47;;;;;;;1.55;1.25;;;32.50;69.80;;;;;;5099943;28;20028;-69
2021/08/26 12:51:31;;;;;;;3.15;1.30;;;;;;;;;;5099351;28;20465;-69
2021/08/26 12:54:03;;;;;;;1.65;0.90;;;31.90;71.60;;;;;;5098317;28;20028;-69